Weather History for KIWD - December, 2012

Change the Weather History Date:

Thursday, December 6, 2012

  Actual Average Record
Temperature  
Mean Temperature 34 °F -  
Max Temperature 41 °F 30 °F - (-1)
Min Temperature 26 °F 18 °F - (-1)
Degree Days  
Heating Degree Days 32    
Moisture  
Dew Point 25 °F    
Average Humidity 68    
Maximum Humidity 81    
Minimum Humidity 52    
Precipitation  
Precipitation 0.00 in - - ()
Sea Level Pressure  
Sea Level Pressure 29.76 in    
Wind  
Wind Speed 15 mph (SW)    
Max Wind Speed 22 mph    
Max Gust Speed 31 mph    
Visibility 10 miles    
Events      
Averages and records for this station are not official NWS values.
T = Trace of Precipitation, MM = Missing Value Source: NWS Daily Summary

Daily Weather History Graph

Daily Weather History Graph

Search for Another Location

Airport or City:

Trip Planner

Search our weather history database for the weather conditions in past years. The results will help you decide how hot, cold, wet, or windy it might be!

Date:

Astronomy

Dec. 06, 2012 Rise Set
Actual Time 7:30 AM CST 4:13 PM CST
Civil Twilight 6:55 AM CST 4:48 PM CST
Nautical Twilight 6:17 AM CST 5:26 PM CST
Astronomical Twilight 5:40 AM CST 6:02 PM CST
Moon No Moon Rise 12:01 PM CST (12/6)
Length of Visible Light 9h 52m
Length of Day
8h 43m
Waning Gibbous, 49% of the Moon is Illuminated
Dec 6
Waning Gibbous
Dec 13
New
Dec 19
First Quarter
Dec 28
Full
Jan 4
Last Quarter

Hourly Weather History & Observations

Time (CST) Temp. Windchill Dew Point Humidity Pressure Visibility Wind Dir Wind Speed Gust Speed Precip Events Conditions
12:15 AM 33.8 °F 22.5 °F 17.6 °F 52% 29.87 in 10.0 mi South 19.6 mph 31.1 mph N/A   Overcast
12:35 AM 33.8 °F 24.3 °F 17.6 °F 52% 29.87 in 10.0 mi South 13.8 mph 24.2 mph N/A   Mostly Cloudy
12:55 AM 33.8 °F 25.3 °F 19.4 °F 56% 29.85 in 10.0 mi South 11.5 mph 31.1 mph N/A   Overcast
1:15 AM 35.6 °F 26.6 °F 19.4 °F 52% 29.86 in 10.0 mi South 13.8 mph 21.9 mph N/A   Overcast
1:35 AM 35.6 °F 26.6 °F 19.4 °F 52% 29.85 in 10.0 mi South 13.8 mph 25.3 mph N/A   Mostly Cloudy
1:55 AM 35.6 °F 25.5 °F 19.4 °F 52% 29.84 in 10.0 mi South 17.3 mph 25.3 mph N/A   Mostly Cloudy
2:15 AM 35.6 °F 25.2 °F 19.4 °F 52% 29.83 in 10.0 mi South 18.4 mph 25.3 mph N/A   Partly Cloudy
2:35 AM 35.6 °F 25.9 °F 19.4 °F 52% 29.82 in 10.0 mi South 16.1 mph 24.2 mph N/A   Scattered Clouds
2:55 AM 35.6 °F 26.2 °F 19.4 °F 52% 29.82 in 10.0 mi South 15.0 mph 26.5 mph N/A   Partly Cloudy
3:15 AM 35.6 °F 25.9 °F 19.4 °F 52% 29.80 in 10.0 mi South 16.1 mph 26.5 mph N/A   Scattered Clouds
3:35 AM 35.6 °F 26.2 °F 21.2 °F 56% 29.79 in 10.0 mi South 15.0 mph 25.3 mph N/A   Scattered Clouds
3:55 AM 35.6 °F 25.2 °F 21.2 °F 56% 29.78 in 10.0 mi South 18.4 mph 23.0 mph N/A   Scattered Clouds
4:15 AM 37.4 °F 28.5 °F 21.2 °F 52% 29.78 in 10.0 mi South 15.0 mph 26.5 mph N/A   Mostly Cloudy
4:35 AM 37.4 °F 27.8 °F 21.2 °F 52% 29.78 in 10.0 mi South 17.3 mph 29.9 mph N/A   Overcast
4:55 AM 37.4 °F 26.9 °F 21.2 °F 52% 29.77 in 10.0 mi South 20.7 mph 28.8 mph N/A   Overcast
5:15 AM 37.4 °F 28.9 °F 23.0 °F 56% 29.77 in 10.0 mi South 13.8 mph 25.3 mph N/A   Overcast
5:35 AM 37.4 °F 26.6 °F 24.8 °F 60% 29.77 in 10.0 mi South 21.9 mph 29.9 mph N/A   Overcast
5:55 AM 35.6 °F 25.5 °F 24.8 °F 65% 29.76 in 5.0 mi South 17.3 mph 27.6 mph N/A   Overcast
6:15 AM 35.6 °F 25.2 °F 26.6 °F 70% 29.75 in 5.0 mi South 18.4 mph 28.8 mph N/A   Overcast
6:35 AM 35.6 °F 25.9 °F 26.6 °F 70% 29.74 in 3.0 mi South 16.1 mph 27.6 mph N/A   Overcast
6:55 AM 33.8 °F 23.2 °F 28.4 °F 81% 29.70 in 3.0 mi South 17.3 mph 27.6 mph N/A   Mostly Cloudy
7:15 AM 33.8 °F 24.8 °F 28.4 °F 81% 29.71 in 10.0 mi SSW 12.7 mph 23.0 mph N/A   Mostly Cloudy
7:35 AM 35.6 °F 25.5 °F 28.4 °F 75% 29.70 in 10.0 mi SSW 17.3 mph 25.3 mph N/A   Overcast
7:55 AM 35.6 °F 26.6 °F 30.2 °F 81% 29.71 in 10.0 mi SSW 13.8 mph 21.9 mph N/A   Overcast
8:15 AM 35.6 °F 26.6 °F 30.2 °F 81% 29.72 in 10.0 mi SSW 13.8 mph 18.4 mph N/A   Overcast
8:35 AM 37.4 °F 28.5 °F 30.2 °F 75% 29.71 in 10.0 mi SSW 15.0 mph 25.3 mph N/A   Overcast
8:55 AM 37.4 °F 28.9 °F 30.2 °F 75% 29.71 in 10.0 mi SSW 13.8 mph 23.0 mph N/A   Overcast
9:15 AM 37.4 °F 28.2 °F 32.0 °F 81% 29.71 in 10.0 mi South 16.1 mph 27.6 mph N/A   Overcast
9:35 AM 37.4 °F 28.2 °F 30.2 °F 75% 29.71 in 10.0 mi South 16.1 mph 24.2 mph N/A   Overcast
9:55 AM 37.4 °F 28.9 °F 30.2 °F 75% 29.71 in 10.0 mi SSW 13.8 mph 23.0 mph N/A   Overcast
10:15 AM 37.4 °F 28.2 °F 30.2 °F 75% 29.71 in 10.0 mi SSW 16.1 mph 27.6 mph N/A   Overcast
10:35 AM 37.4 °F 29.8 °F 30.2 °F 75% 29.71 in 10.0 mi SSW 11.5 mph 23.0 mph N/A   Overcast
10:55 AM 37.4 °F 28.5 °F 32.0 °F 81% 29.70 in 10.0 mi SSW 15.0 mph 21.9 mph N/A   Overcast
11:15 AM 37.4 °F 28.5 °F 32.0 °F 81% 29.69 in 10.0 mi SSW 15.0 mph 23.0 mph N/A   Overcast
11:35 AM 39.2 °F 30.8 °F 32.0 °F 75% 29.67 in 10.0 mi SSW 15.0 mph 21.9 mph N/A   Overcast
11:55 AM 39.2 °F 30.2 °F 32.0 °F 75% 29.68 in 10.0 mi SW 17.3 mph 24.2 mph N/A   Overcast
12:15 PM 39.2 °F 30.8 °F 32.0 °F 75% 29.67 in 10.0 mi SSW 15.0 mph 21.9 mph N/A   Overcast
12:35 PM 39.2 °F 31.2 °F 32.0 °F 75% 29.67 in 10.0 mi SW 13.8 mph 19.6 mph N/A   Overcast
12:55 PM 39.2 °F 31.2 °F 33.8 °F 81% 29.67 in 10.0 mi SW 13.8 mph 20.7 mph N/A   Overcast
1:15 PM 39.2 °F 31.6 °F 33.8 °F 81% 29.66 in 10.0 mi SW 12.7 mph 16.1 mph N/A   Overcast
1:35 PM 39.2 °F 32.0 °F 33.8 °F 81% 29.66 in 10.0 mi SW 11.5 mph - N/A   Overcast
1:55 PM 39.2 °F 31.6 °F 33.8 °F 81% 29.66 in 10.0 mi WSW 12.7 mph 18.4 mph N/A   Overcast
2:15 PM 41.0 °F 34.7 °F 33.8 °F 76% 29.67 in 10.0 mi WSW 10.4 mph - N/A   Overcast
2:35 PM 39.2 °F 32.0 °F 30.2 °F 70% 29.69 in 10.0 mi WNW 11.5 mph 17.3 mph N/A   Overcast
2:55 PM 39.2 °F 30.8 °F 28.4 °F 65% 29.70 in 10.0 mi West 15.0 mph - N/A   Overcast
3:15 PM 39.2 °F 30.5 °F 28.4 °F 65% 29.71 in 10.0 mi West 16.1 mph - N/A   Mostly Cloudy
3:35 PM 39.2 °F 31.2 °F 26.6 °F 61% 29.72 in 10.0 mi West 13.8 mph - N/A   Overcast
3:55 PM 37.4 °F 28.9 °F 26.6 °F 65% 29.72 in 10.0 mi West 13.8 mph - N/A   Overcast
4:15 PM 37.4 °F 30.3 °F 26.6 °F 65% 29.73 in 10.0 mi West 10.4 mph - N/A   Overcast
4:35 PM 37.4 °F 29.3 °F 26.6 °F 65% 29.74 in 10.0 mi West 12.7 mph - N/A   Overcast
4:55 PM 37.4 °F 29.8 °F 26.6 °F 65% 29.75 in 10.0 mi WNW 11.5 mph 16.1 mph N/A   Overcast
5:15 PM 35.6 °F 26.6 °F 26.6 °F 70% 29.75 in 10.0 mi WNW 13.8 mph - N/A   Overcast
5:35 PM 35.6 °F 27.5 °F 26.6 °F 70% 29.77 in 10.0 mi West 11.5 mph 20.7 mph N/A   Overcast
5:55 PM 35.6 °F 26.6 °F 24.8 °F 65% 29.77 in 10.0 mi West 13.8 mph - N/A   Overcast
6:15 PM 35.6 °F 27.1 °F 26.6 °F 70% 29.78 in 10.0 mi WNW 12.7 mph 20.7 mph N/A   Overcast
6:35 PM 33.8 °F 23.9 °F 24.8 °F 70% 29.78 in 10.0 mi WNW 15.0 mph 21.9 mph N/A   Overcast
6:55 PM 33.8 °F 24.8 °F 24.8 °F 70% 29.79 in 10.0 mi WNW 12.7 mph 23.0 mph N/A   Overcast
7:15 PM 33.8 °F 24.3 °F 24.8 °F 70% 29.80 in 10.0 mi WNW 13.8 mph - N/A   Overcast
7:35 PM 33.8 °F 27.0 °F 23.0 °F 65% 29.81 in 10.0 mi WNW 8.1 mph - N/A   Overcast
7:55 PM 32.0 °F 24.8 °F 24.8 °F 75% 29.81 in 10.0 mi WNW 8.1 mph - N/A   Overcast
8:35 PM 30.2 °F 20.2 °F 23.0 °F 75% 29.82 in 10.0 mi WNW 12.7 mph - N/A   Overcast
8:55 PM 30.2 °F 20.2 °F 21.2 °F 69% 29.84 in 10.0 mi West 12.7 mph 19.6 mph N/A   Mostly Cloudy
9:15 PM 30.2 °F 21.3 °F 21.2 °F 69% 29.84 in 10.0 mi West 10.4 mph - N/A   Mostly Cloudy
9:35 PM 30.2 °F 18.5 °F 21.2 °F 69% 29.85 in 10.0 mi West 17.3 mph - N/A   Overcast
9:55 PM 28.4 °F 16.6 °F 19.4 °F 69% 29.85 in 10.0 mi West 16.1 mph 20.7 mph N/A   Overcast
10:15 PM 28.4 °F 17.5 °F 19.4 °F 69% 29.85 in 10.0 mi West 13.8 mph - N/A   Overcast
10:35 PM 28.4 °F 18.5 °F 19.4 °F 69% 29.85 in 10.0 mi West 11.5 mph - N/A   Mostly Cloudy
10:55 PM 26.6 °F 16.8 °F 17.6 °F 69% 29.86 in 10.0 mi West 10.4 mph - N/A   Partly Cloudy
11:15 PM 26.6 °F 16.2 °F 17.6 °F 69% 29.86 in 10.0 mi West 11.5 mph - N/A   Clear
11:35 PM 26.6 °F 16.8 °F 19.4 °F 74% 29.87 in 10.0 mi West 10.4 mph - N/A   Clear
11:55 PM 26.6 °F 16.8 °F 17.6 °F 69% 29.87 in 10.0 mi West 10.4 mph - N/A   Scattered Clouds